Omega, Georgia
Current Conditions -  °F | °C
As of 8:10 AM on Thursday 30 Oct 2014 (Local Time) from KTMA Reporting Station
Scattered Clouds Scattered Clouds  
Wind Chill: 56°   Ceiling: Unl
Heat Index: 56°   Visibility: 10mi
Dew Point: 47°   Wind: 5mph
Humidity: 70%   Direction: 360°N
Pressure: 30.02"   Gusts: NA
Location:  31.34°N, 83.59°W
Report Text: KTMA 301210Z AUTO 36004KT 10SM SCT060 SCT080 SCT100 14/08 A3002 RMK AO2 T01350082
Loading
Personal Weather Stations






























Interactive Weather Map
Tropical Storm Tracking
New forecast layout! Learn more

10-Day Weather Forecast

Advertisements
Track Severe Weather on mobile